sensor_id;sensor_type;location;lat;lon;timestamp;P1;durP1;ratioP1;P2;durP2;ratioP2
10467;SDS011;5281;48.878;9.394;2023-02-23T00:01:11;19.67;;;15.33;;
10467;SDS011;5281;48.878;9.394;2023-02-23T00:03:40;22.53;;;14.80;;
10467;SDS011;5281;48.878;9.394;2023-02-23T00:06:07;19.60;;;14.87;;
10467;SDS011;5281;48.878;9.394;2023-02-23T00:08:34;20.13;;;14.93;;
10467;SDS011;5281;48.878;9.394;2023-02-23T00:11:02;21.53;;;14.80;;
10467;SDS011;5281;48.878;9.394;2023-02-23T00:13:30;23.30;;;15.47;;
10467;SDS011;5281;48.878;9.394;2023-02-23T00:16:03;19.40;;;14.77;;
10467;SDS011;5281;48.878;9.394;2023-02-23T00:18:30;21.63;;;15.30;;
10467;SDS011;5281;48.878;9.394;2023-02-23T00:21:10;22.07;;;14.60;;
10467;SDS011;5281;48.878;9.394;2023-02-23T00:23:39;23.43;;;14.60;;
10467;SDS011;5281;48.878;9.394;2023-02-23T00:26:12;22.00;;;15.17;;
10467;SDS011;5281;48.878;9.394;2023-02-23T00:28:39;19.60;;;15.00;;
10467;SDS011;5281;48.878;9.394;2023-02-23T00:31:07;20.23;;;14.87;;
10467;SDS011;5281;48.878;9.394;2023-02-23T00:33:35;24.60;;;15.87;;
10467;SDS011;5281;48.878;9.394;2023-02-23T00:36:02;22.73;;;15.27;;
10467;SDS011;5281;48.878;9.394;2023-02-23T00:38:31;21.17;;;15.07;;
10467;SDS011;5281;48.878;9.394;2023-02-23T00:41:02;20.40;;;14.50;;
10467;SDS011;5281;48.878;9.394;2023-02-23T00:43:32;21.00;;;15.13;;
10467;SDS011;5281;48.878;9.394;2023-02-23T00:45:59;19.30;;;14.47;;
10467;SDS011;5281;48.878;9.394;2023-02-23T00:48:29;24.80;;;15.53;;
10467;SDS011;5281;48.878;9.394;2023-02-23T00:50:56;23.00;;;14.60;;
10467;SDS011;5281;48.878;9.394;2023-02-23T00:53:24;18.10;;;14.37;;
10467;SDS011;5281;48.878;9.394;2023-02-23T00:55:52;20.37;;;15.20;;
10467;SDS011;5281;48.878;9.394;2023-02-23T00:58:20;20.57;;;14.93;;
10467;SDS011;5281;48.878;9.394;2023-02-23T01:00:47;24.93;;;15.57;;
10467;SDS011;5281;48.878;9.394;2023-02-23T01:03:13;22.13;;;14.93;;
10467;SDS011;5281;48.878;9.394;2023-02-23T01:05:40;23.07;;;15.60;;
10467;SDS011;5281;48.878;9.394;2023-02-23T01:08:07;20.60;;;14.73;;
10467;SDS011;5281;48.878;9.394;2023-02-23T01:10:37;21.80;;;15.17;;
10467;SDS011;5281;48.878;9.394;2023-02-23T01:13:08;28.63;;;16.43;;
10467;SDS011;5281;48.878;9.394;2023-02-23T01:15:39;21.30;;;15.50;;
10467;SDS011;5281;48.878;9.394;2023-02-23T01:18:08;22.80;;;15.17;;
10467;SDS011;5281;48.878;9.394;2023-02-23T01:20:36;19.20;;;14.50;;
10467;SDS011;5281;48.878;9.394;2023-02-23T01:23:05;18.40;;;14.80;;
10467;SDS011;5281;48.878;9.394;2023-02-23T01:25:33;20.00;;;14.67;;
10467;SDS011;5281;48.878;9.394;2023-02-23T01:28:00;23.63;;;15.53;;
10467;SDS011;5281;48.878;9.394;2023-02-23T01:30:28;22.90;;;14.87;;
10467;SDS011;5281;48.878;9.394;2023-02-23T01:32:55;20.50;;;15.80;;
10467;SDS011;5281;48.878;9.394;2023-02-23T01:35:22;21.97;;;15.07;;
10467;SDS011;5281;48.878;9.394;2023-02-23T01:37:48;20.60;;;15.67;;
10467;SDS011;5281;48.878;9.394;2023-02-23T01:40:16;20.47;;;14.57;;
10467;SDS011;5281;48.878;9.394;2023-02-23T01:42:53;22.67;;;15.30;;
10467;SDS011;5281;48.878;9.394;2023-02-23T01:45:25;21.37;;;15.43;;
10467;SDS011;5281;48.878;9.394;2023-02-23T01:47:57;20.67;;;14.87;;
10467;SDS011;5281;48.878;9.394;2023-02-23T01:50:27;20.30;;;14.87;;
10467;SDS011;5281;48.878;9.394;2023-02-23T01:52:55;19.60;;;14.20;;
10467;SDS011;5281;48.878;9.394;2023-02-23T01:55:23;22.33;;;15.77;;
10467;SDS011;5281;48.878;9.394;2023-02-23T01:57:55;20.33;;;15.47;;
10467;SDS011;5281;48.878;9.394;2023-02-23T02:00:28;23.70;;;16.43;;
10467;SDS011;5281;48.878;9.394;2023-02-23T02:02:57;20.40;;;15.87;;
10467;SDS011;5281;48.878;9.394;2023-02-23T02:05:27;20.30;;;16.10;;
10467;SDS011;5281;48.878;9.394;2023-02-23T02:07:55;21.90;;;16.00;;
10467;SDS011;5281;48.878;9.394;2023-02-23T02:10:24;22.53;;;16.10;;
10467;SDS011;5281;48.878;9.394;2023-02-23T02:13:08;23.13;;;15.97;;
10467;SDS011;5281;48.878;9.394;2023-02-23T02:15:42;22.17;;;15.90;;
10467;SDS011;5281;48.878;9.394;2023-02-23T02:18:34;23.67;;;16.10;;
10467;SDS011;5281;48.878;9.394;2023-02-23T02:24:25;20.07;;;15.43;;
10467;SDS011;5281;48.878;9.394;2023-02-23T02:27:21;25.23;;;16.20;;
10467;SDS011;5281;48.878;9.394;2023-02-23T02:30:11;23.90;;;16.17;;
10467;SDS011;5281;48.878;9.394;2023-02-23T02:39:27;20.60;;;15.27;;
10467;SDS011;5281;48.878;9.394;2023-02-23T02:42:05;24.53;;;16.17;;
10467;SDS011;5281;48.878;9.394;2023-02-23T02:44:43;21.57;;;15.83;;
10467;SDS011;5281;48.878;9.394;2023-02-23T02:47:16;23.73;;;16.20;;
10467;SDS011;5281;48.878;9.394;2023-02-23T02:49:48;25.87;;;16.83;;
10467;SDS011;5281;48.878;9.394;2023-02-23T02:52:25;24.30;;;16.53;;
10467;SDS011;5281;48.878;9.394;2023-02-23T02:54:55;23.33;;;16.43;;
10467;SDS011;5281;48.878;9.394;2023-02-23T02:57:33;21.37;;;15.33;;
10467;SDS011;5281;48.878;9.394;2023-02-23T03:00:02;22.07;;;17.07;;
10467;SDS011;5281;48.878;9.394;2023-02-23T03:02:47;21.47;;;16.57;;
10467;SDS011;5281;48.878;9.394;2023-02-23T03:05:39;20.87;;;15.57;;
10467;SDS011;5281;48.878;9.394;2023-02-23T03:08:30;19.63;;;15.80;;
10467;SDS011;5281;48.878;9.394;2023-02-23T03:11:20;24.43;;;15.93;;
10467;SDS011;5281;48.878;9.394;2023-02-23T03:14:16;20.63;;;15.43;;
10467;SDS011;5281;48.878;9.394;2023-02-23T03:17:12;21.83;;;16.77;;
10467;SDS011;5281;48.878;9.394;2023-02-23T03:20:09;24.67;;;16.37;;
10467;SDS011;5281;48.878;9.394;2023-02-23T03:23:03;23.57;;;16.50;;
10467;SDS011;5281;48.878;9.394;2023-02-23T03:25:58;23.23;;;16.73;;
10467;SDS011;5281;48.878;9.394;2023-02-23T03:28:51;21.43;;;16.37;;
10467;SDS011;5281;48.878;9.394;2023-02-23T03:31:43;23.70;;;16.70;;
10467;SDS011;5281;48.878;9.394;2023-02-23T03:34:33;22.43;;;16.63;;
10467;SDS011;5281;48.878;9.394;2023-02-23T03:37:23;26.37;;;17.07;;
10467;SDS011;5281;48.878;9.394;2023-02-23T03:40:12;21.40;;;16.80;;
10467;SDS011;5281;48.878;9.394;2023-02-23T03:43:04;24.67;;;17.83;;
10467;SDS011;5281;48.878;9.394;2023-02-23T03:45:51;25.90;;;18.20;;
10467;SDS011;5281;48.878;9.394;2023-02-23T03:48:37;28.03;;;18.40;;
10467;SDS011;5281;48.878;9.394;2023-02-23T03:51:23;27.60;;;18.57;;
10467;SDS011;5281;48.878;9.394;2023-02-23T03:54:10;23.53;;;18.10;;
10467;SDS011;5281;48.878;9.394;2023-02-23T03:56:58;26.63;;;17.93;;
10467;SDS011;5281;48.878;9.394;2023-02-23T03:59:49;27.37;;;18.23;;
10467;SDS011;5281;48.878;9.394;2023-02-23T04:02:37;27.00;;;18.67;;
10467;SDS011;5281;48.878;9.394;2023-02-23T04:05:24;23.17;;;18.13;;
10467;SDS011;5281;48.878;9.394;2023-02-23T04:08:12;27.70;;;19.27;;
10467;SDS011;5281;48.878;9.394;2023-02-23T04:11:01;25.50;;;19.10;;
10467;SDS011;5281;48.878;9.394;2023-02-23T04:13:56;28.30;;;18.93;;
10467;SDS011;5281;48.878;9.394;2023-02-23T04:16:26;29.77;;;19.43;;
10467;SDS011;5281;48.878;9.394;2023-02-23T04:18:54;26.90;;;19.00;;
10467;SDS011;5281;48.878;9.394;2023-02-23T04:21:20;27.53;;;19.07;;
10467;SDS011;5281;48.878;9.394;2023-02-23T04:23:47;24.67;;;19.23;;
10467;SDS011;5281;48.878;9.394;2023-02-23T04:26:14;26.20;;;18.90;;
10467;SDS011;5281;48.878;9.394;2023-02-23T04:28:41;27.57;;;20.50;;
10467;SDS011;5281;48.878;9.394;2023-02-23T04:31:07;27.17;;;19.53;;
10467;SDS011;5281;48.878;9.394;2023-02-23T04:33:35;30.37;;;20.43;;
10467;SDS011;5281;48.878;9.394;2023-02-23T04:36:02;25.53;;;18.57;;
10467;SDS011;5281;48.878;9.394;2023-02-23T04:38:29;28.63;;;19.90;;
10467;SDS011;5281;48.878;9.394;2023-02-23T04:40:56;28.17;;;20.37;;
10467;SDS011;5281;48.878;9.394;2023-02-23T04:43:23;31.40;;;20.60;;
10467;SDS011;5281;48.878;9.394;2023-02-23T04:45:49;26.80;;;20.00;;
10467;SDS011;5281;48.878;9.394;2023-02-23T04:48:17;24.67;;;19.00;;
10467;SDS011;5281;48.878;9.394;2023-02-23T04:50:45;25.63;;;19.67;;
10467;SDS011;5281;48.878;9.394;2023-02-23T04:53:12;26.40;;;19.47;;
10467;SDS011;5281;48.878;9.394;2023-02-23T04:55:38;24.67;;;19.13;;
10467;SDS011;5281;48.878;9.394;2023-02-23T04:58:05;25.30;;;19.27;;
10467;SDS011;5281;48.878;9.394;2023-02-23T05:00:32;24.77;;;19.43;;
10467;SDS011;5281;48.878;9.394;2023-02-23T05:02:58;26.40;;;18.93;;
10467;SDS011;5281;48.878;9.394;2023-02-23T05:05:25;26.50;;;20.50;;
10467;SDS011;5281;48.878;9.394;2023-02-23T05:07:53;29.57;;;19.83;;
10467;SDS011;5281;48.878;9.394;2023-02-23T05:10:20;26.10;;;19.10;;
10467;SDS011;5281;48.878;9.394;2023-02-23T05:12:47;25.23;;;19.30;;
10467;SDS011;5281;48.878;9.394;2023-02-23T05:15:13;26.17;;;19.50;;
10467;SDS011;5281;48.878;9.394;2023-02-23T05:17:40;24.90;;;19.53;;
10467;SDS011;5281;48.878;9.394;2023-02-23T05:20:08;23.83;;;18.47;;
10467;SDS011;5281;48.878;9.394;2023-02-23T05:22:36;27.27;;;19.07;;
10467;SDS011;5281;48.878;9.394;2023-02-23T05:25:05;23.57;;;18.83;;
10467;SDS011;5281;48.878;9.394;2023-02-23T05:27:33;27.80;;;19.13;;
10467;SDS011;5281;48.878;9.394;2023-02-23T05:29:59;24.90;;;18.53;;
10467;SDS011;5281;48.878;9.394;2023-02-23T05:32:26;28.63;;;19.77;;
10467;SDS011;5281;48.878;9.394;2023-02-23T05:34:53;30.97;;;20.40;;
10467;SDS011;5281;48.878;9.394;2023-02-23T05:37:20;27.27;;;19.53;;
10467;SDS011;5281;48.878;9.394;2023-02-23T05:39:47;25.77;;;18.77;;
10467;SDS011;5281;48.878;9.394;2023-02-23T05:42:15;26.67;;;19.60;;
10467;SDS011;5281;48.878;9.394;2023-02-23T05:44:41;24.17;;;18.97;;
10467;SDS011;5281;48.878;9.394;2023-02-23T05:47:08;27.33;;;18.90;;
10467;SDS011;5281;48.878;9.394;2023-02-23T05:49:35;26.33;;;20.07;;
10467;SDS011;5281;48.878;9.394;2023-02-23T05:52:02;28.03;;;19.90;;
10467;SDS011;5281;48.878;9.394;2023-02-23T05:54:30;30.23;;;19.90;;
10467;SDS011;5281;48.878;9.394;2023-02-23T05:56:56;24.53;;;19.13;;
10467;SDS011;5281;48.878;9.394;2023-02-23T05:59:24;24.63;;;18.57;;
10467;SDS011;5281;48.878;9.394;2023-02-23T06:01:51;24.73;;;19.17;;
10467;SDS011;5281;48.878;9.394;2023-02-23T06:04:18;22.77;;;18.27;;
10467;SDS011;5281;48.878;9.394;2023-02-23T06:06:47;25.27;;;18.87;;
10467;SDS011;5281;48.878;9.394;2023-02-23T06:09:14;24.03;;;18.87;;
10467;SDS011;5281;48.878;9.394;2023-02-23T06:11:40;28.63;;;19.60;;
10467;SDS011;5281;48.878;9.394;2023-02-23T06:14:07;27.87;;;19.57;;
10467;SDS011;5281;48.878;9.394;2023-02-23T06:16:35;28.77;;;19.67;;
10467;SDS011;5281;48.878;9.394;2023-02-23T06:19:03;27.83;;;19.70;;
10467;SDS011;5281;48.878;9.394;2023-02-23T06:21:29;25.57;;;18.90;;
10467;SDS011;5281;48.878;9.394;2023-02-23T06:23:56;28.03;;;18.97;;
10467;SDS011;5281;48.878;9.394;2023-02-23T06:26:24;22.80;;;17.90;;
10467;SDS011;5281;48.878;9.394;2023-02-23T06:28:51;25.87;;;18.47;;
10467;SDS011;5281;48.878;9.394;2023-02-23T06:31:18;28.33;;;19.23;;
10467;SDS011;5281;48.878;9.394;2023-02-23T06:33:46;24.13;;;18.30;;
10467;SDS011;5281;48.878;9.394;2023-02-23T06:36:13;26.47;;;18.47;;
10467;SDS011;5281;48.878;9.394;2023-02-23T06:38:40;32.10;;;20.10;;
10467;SDS011;5281;48.878;9.394;2023-02-23T06:41:07;34.90;;;18.60;;
10467;SDS011;5281;48.878;9.394;2023-02-23T06:43:34;24.20;;;18.67;;
10467;SDS011;5281;48.878;9.394;2023-02-23T06:46:01;25.03;;;19.50;;
10467;SDS011;5281;48.878;9.394;2023-02-23T06:48:28;26.63;;;18.87;;
10467;SDS011;5281;48.878;9.394;2023-02-23T06:50:57;23.93;;;18.30;;
10467;SDS011;5281;48.878;9.394;2023-02-23T06:53:24;27.83;;;19.00;;
10467;SDS011;5281;48.878;9.394;2023-02-23T06:55:51;24.73;;;17.43;;
10467;SDS011;5281;48.878;9.394;2023-02-23T06:58:18;27.27;;;19.03;;
10467;SDS011;5281;48.878;9.394;2023-02-23T07:00:44;23.70;;;19.10;;
10467;SDS011;5281;48.878;9.394;2023-02-23T07:03:11;25.57;;;19.33;;
10467;SDS011;5281;48.878;9.394;2023-02-23T07:05:38;26.23;;;18.50;;
10467;SDS011;5281;48.878;9.394;2023-02-23T07:08:06;26.63;;;19.03;;
10467;SDS011;5281;48.878;9.394;2023-02-23T07:10:33;26.77;;;19.10;;
10467;SDS011;5281;48.878;9.394;2023-02-23T07:13:00;24.80;;;18.93;;
10467;SDS011;5281;48.878;9.394;2023-02-23T07:15:26;27.20;;;18.87;;
10467;SDS011;5281;48.878;9.394;2023-02-23T07:17:53;26.83;;;18.77;;
10467;SDS011;5281;48.878;9.394;2023-02-23T07:20:20;25.80;;;18.73;;
10467;SDS011;5281;48.878;9.394;2023-02-23T07:22:47;22.73;;;17.93;;
10467;SDS011;5281;48.878;9.394;2023-02-23T07:25:16;29.93;;;19.30;;
10467;SDS011;5281;48.878;9.394;2023-02-23T07:27:43;25.23;;;18.90;;
10467;SDS011;5281;48.878;9.394;2023-02-23T07:30:10;25.57;;;19.23;;
10467;SDS011;5281;48.878;9.394;2023-02-23T07:32:38;22.83;;;18.50;;
10467;SDS011;5281;48.878;9.394;2023-02-23T07:35:05;26.73;;;18.73;;
10467;SDS011;5281;48.878;9.394;2023-02-23T07:37:32;26.33;;;18.80;;
10467;SDS011;5281;48.878;9.394;2023-02-23T07:39:59;25.17;;;19.07;;
10467;SDS011;5281;48.878;9.394;2023-02-23T07:42:27;27.20;;;19.00;;
10467;SDS011;5281;48.878;9.394;2023-02-23T07:44:54;25.40;;;18.63;;
10467;SDS011;5281;48.878;9.394;2023-02-23T07:47:20;24.90;;;18.23;;
10467;SDS011;5281;48.878;9.394;2023-02-23T07:49:56;27.47;;;18.50;;
10467;SDS011;5281;48.878;9.394;2023-02-23T07:52:24;23.93;;;17.90;;
10467;SDS011;5281;48.878;9.394;2023-02-23T07:54:51;26.80;;;18.50;;
10467;SDS011;5281;48.878;9.394;2023-02-23T07:57:18;23.23;;;18.57;;
10467;SDS011;5281;48.878;9.394;2023-02-23T07:59:46;24.37;;;18.90;;
10467;SDS011;5281;48.878;9.394;2023-02-23T08:02:13;21.10;;;17.40;;
10467;SDS011;5281;48.878;9.394;2023-02-23T08:04:40;25.40;;;18.90;;
10467;SDS011;5281;48.878;9.394;2023-02-23T08:07:07;22.93;;;17.57;;
10467;SDS011;5281;48.878;9.394;2023-02-23T08:09:34;23.57;;;17.50;;
10467;SDS011;5281;48.878;9.394;2023-02-23T08:12:00;22.57;;;16.73;;
10467;SDS011;5281;48.878;9.394;2023-02-23T08:14:27;24.60;;;16.17;;
10467;SDS011;5281;48.878;9.394;2023-02-23T08:16:56;23.80;;;17.10;;
10467;SDS011;5281;48.878;9.394;2023-02-23T08:19:22;23.00;;;17.20;;
10467;SDS011;5281;48.878;9.394;2023-02-23T08:21:49;21.40;;;17.20;;
10467;SDS011;5281;48.878;9.394;2023-02-23T08:24:16;24.53;;;18.40;;
10467;SDS011;5281;48.878;9.394;2023-02-23T08:26:42;23.60;;;16.93;;
10467;SDS011;5281;48.878;9.394;2023-02-23T08:29:09;24.97;;;17.40;;
10467;SDS011;5281;48.878;9.394;2023-02-23T08:31:36;22.47;;;17.60;;
10467;SDS011;5281;48.878;9.394;2023-02-23T08:34:04;21.60;;;17.53;;
10467;SDS011;5281;48.878;9.394;2023-02-23T08:36:31;23.47;;;17.63;;
10467;SDS011;5281;48.878;9.394;2023-02-23T08:38:57;24.70;;;17.93;;
10467;SDS011;5281;48.878;9.394;2023-02-23T08:41:26;22.57;;;17.13;;
10467;SDS011;5281;48.878;9.394;2023-02-23T08:43:53;21.03;;;15.57;;
10467;SDS011;5281;48.878;9.394;2023-02-23T08:46:19;25.10;;;18.63;;
10467;SDS011;5281;48.878;9.394;2023-02-23T08:48:46;21.77;;;15.63;;
10467;SDS011;5281;48.878;9.394;2023-02-23T08:51:14;24.70;;;15.10;;
10467;SDS011;5281;48.878;9.394;2023-02-23T08:53:41;19.57;;;16.03;;
10467;SDS011;5281;48.878;9.394;2023-02-23T08:56:09;22.70;;;15.87;;
10467;SDS011;5281;48.878;9.394;2023-02-23T08:58:36;19.77;;;14.47;;
10467;SDS011;5281;48.878;9.394;2023-02-23T09:01:03;19.63;;;15.00;;
10467;SDS011;5281;48.878;9.394;2023-02-23T09:03:31;16.33;;;13.87;;
10467;SDS011;5281;48.878;9.394;2023-02-23T09:06:04;18.07;;;13.67;;
10467;SDS011;5281;48.878;9.394;2023-02-23T09:08:34;18.83;;;13.97;;
10467;SDS011;5281;48.878;9.394;2023-02-23T09:11:01;17.90;;;13.80;;
10467;SDS011;5281;48.878;9.394;2023-02-23T09:13:28;17.10;;;12.47;;
10467;SDS011;5281;48.878;9.394;2023-02-23T09:15:54;16.77;;;12.87;;
10467;SDS011;5281;48.878;9.394;2023-02-23T09:18:21;17.90;;;12.80;;
10467;SDS011;5281;48.878;9.394;2023-02-23T09:20:53;17.43;;;12.30;;
10467;SDS011;5281;48.878;9.394;2023-02-23T09:23:20;17.90;;;13.03;;
10467;SDS011;5281;48.878;9.394;2023-02-23T09:25:49;16.90;;;13.50;;
10467;SDS011;5281;48.878;9.394;2023-02-23T09:28:16;15.50;;;12.93;;
10467;SDS011;5281;48.878;9.394;2023-02-23T09:30:45;21.27;;;12.67;;
10467;SDS011;5281;48.878;9.394;2023-02-23T09:33:12;19.17;;;13.37;;
10467;SDS011;5281;48.878;9.394;2023-02-23T09:35:39;16.73;;;12.73;;
10467;SDS011;5281;48.878;9.394;2023-02-23T09:38:06;17.30;;;11.87;;
10467;SDS011;5281;48.878;9.394;2023-02-23T09:40:35;14.47;;;11.03;;
10467;SDS011;5281;48.878;9.394;2023-02-23T09:43:11;15.30;;;12.10;;
10467;SDS011;5281;48.878;9.394;2023-02-23T09:45:41;12.53;;;10.47;;
10467;SDS011;5281;48.878;9.394;2023-02-23T09:48:11;10.97;;;8.70;;
10467;SDS011;5281;48.878;9.394;2023-02-23T09:50:42;11.93;;;8.10;;
10467;SDS011;5281;48.878;9.394;2023-02-23T09:53:15;12.10;;;7.80;;
10467;SDS011;5281;48.878;9.394;2023-02-23T09:55:50;13.57;;;7.80;;
10467;SDS011;5281;48.878;9.394;2023-02-23T09:58:21;10.07;;;6.97;;
10467;SDS011;5281;48.878;9.394;2023-02-23T10:00:50;11.00;;;7.30;;
10467;SDS011;5281;48.878;9.394;2023-02-23T10:03:30;10.13;;;7.77;;
10467;SDS011;5281;48.878;9.394;2023-02-23T10:05:59;12.07;;;7.10;;
10467;SDS011;5281;48.878;9.394;2023-02-23T10:08:34;9.30;;;6.93;;
10467;SDS011;5281;48.878;9.394;2023-02-23T10:11:12;7.93;;;6.00;;
10467;SDS011;5281;48.878;9.394;2023-02-23T10:13:53;11.85;;;5.55;;
10467;SDS011;5281;48.878;9.394;2023-02-23T10:16:35;8.40;;;5.43;;
10467;SDS011;5281;48.878;9.394;2023-02-23T10:19:11;9.98;;;5.38;;
10467;SDS011;5281;48.878;9.394;2023-02-23T10:21:48;8.05;;;5.78;;
10467;SDS011;5281;48.878;9.394;2023-02-23T10:24:20;9.02;;;5.15;;
10467;SDS011;5281;48.878;9.394;2023-02-23T10:26:51;7.65;;;5.35;;
10467;SDS011;5281;48.878;9.394;2023-02-23T10:29:22;9.40;;;4.95;;
10467;SDS011;5281;48.878;9.394;2023-02-23T10:31:53;7.30;;;5.22;;
10467;SDS011;5281;48.878;9.394;2023-02-23T10:34:23;8.52;;;5.07;;
10467;SDS011;5281;48.878;9.394;2023-02-23T10:36:55;9.30;;;5.53;;
10467;SDS011;5281;48.878;9.394;2023-02-23T10:39:24;7.05;;;4.50;;
10467;SDS011;5281;48.878;9.394;2023-02-23T10:41:51;6.03;;;3.97;;
10467;SDS011;5281;48.878;9.394;2023-02-23T10:44:19;5.15;;;3.90;;
10467;SDS011;5281;48.878;9.394;2023-02-23T10:46:50;5.13;;;3.45;;
10467;SDS011;5281;48.878;9.394;2023-02-23T10:49:20;5.05;;;3.45;;
10467;SDS011;5281;48.878;9.394;2023-02-23T10:51:49;8.27;;;5.30;;
10467;SDS011;5281;48.878;9.394;2023-02-23T10:57:08;8.57;;;6.50;;
10467;SDS011;5281;48.878;9.394;2023-02-23T10:59:54;7.63;;;5.37;;
10467;SDS011;5281;48.878;9.394;2023-02-23T11:02:32;8.95;;;4.97;;
10467;SDS011;5281;48.878;9.394;2023-02-23T11:05:00;7.65;;;4.32;;
10467;SDS011;5281;48.878;9.394;2023-02-23T11:07:31;5.60;;;3.65;;
10467;SDS011;5281;48.878;9.394;2023-02-23T11:09:59;5.90;;;3.83;;
10467;SDS011;5281;48.878;9.394;2023-02-23T11:12:49;5.78;;;4.25;;
10467;SDS011;5281;48.878;9.394;2023-02-23T11:15:29;9.48;;;4.45;;
10467;SDS011;5281;48.878;9.394;2023-02-23T11:17:58;10.20;;;5.32;;
10467;SDS011;5281;48.878;9.394;2023-02-23T11:20:28;7.95;;;4.28;;
10467;SDS011;5281;48.878;9.394;2023-02-23T11:23:00;6.93;;;4.57;;
10467;SDS011;5281;48.878;9.394;2023-02-23T11:25:33;5.25;;;3.88;;
10467;SDS011;5281;48.878;9.394;2023-02-23T11:28:00;6.82;;;4.07;;
10467;SDS011;5281;48.878;9.394;2023-02-23T11:30:29;6.53;;;4.00;;
10467;SDS011;5281;48.878;9.394;2023-02-23T11:33:01;6.85;;;3.40;;
10467;SDS011;5281;48.878;9.394;2023-02-23T11:35:34;6.13;;;3.40;;
10467;SDS011;5281;48.878;9.394;2023-02-23T11:38:13;6.72;;;4.00;;
10467;SDS011;5281;48.878;9.394;2023-02-23T11:40:41;6.82;;;3.80;;
10467;SDS011;5281;48.878;9.394;2023-02-23T11:43:22;6.25;;;3.72;;
10467;SDS011;5281;48.878;9.394;2023-02-23T11:45:50;7.47;;;4.30;;
10467;SDS011;5281;48.878;9.394;2023-02-23T11:48:21;6.00;;;4.40;;
10467;SDS011;5281;48.878;9.394;2023-02-23T11:50:52;7.20;;;4.03;;
10467;SDS011;5281;48.878;9.394;2023-02-23T11:53:23;5.25;;;3.75;;
10467;SDS011;5281;48.878;9.394;2023-02-23T11:55:57;6.65;;;4.22;;
10467;SDS011;5281;48.878;9.394;2023-02-23T11:58:28;8.25;;;4.47;;
10467;SDS011;5281;48.878;9.394;2023-02-23T12:01:03;7.15;;;4.07;;
10467;SDS011;5281;48.878;9.394;2023-02-23T12:03:36;6.85;;;3.92;;
10467;SDS011;5281;48.878;9.394;2023-02-23T12:06:08;7.22;;;3.67;;
10467;SDS011;5281;48.878;9.394;2023-02-23T12:08:36;7.15;;;3.35;;
10467;SDS011;5281;48.878;9.394;2023-02-23T12:11:09;10.85;;;6.20;;
10467;SDS011;5281;48.878;9.394;2023-02-23T12:13:40;7.07;;;3.97;;
10467;SDS011;5281;48.878;9.394;2023-02-23T12:16:13;6.40;;;3.22;;
10467;SDS011;5281;48.878;9.394;2023-02-23T12:18:45;4.20;;;2.88;;
10467;SDS011;5281;48.878;9.394;2023-02-23T12:21:27;4.72;;;3.13;;
10467;SDS011;5281;48.878;9.394;2023-02-23T12:24:01;9.25;;;4.03;;
10467;SDS011;5281;48.878;9.394;2023-02-23T12:26:40;4.78;;;3.10;;
10467;SDS011;5281;48.878;9.394;2023-02-23T12:29:15;4.93;;;2.83;;
10467;SDS011;5281;48.878;9.394;2023-02-23T12:31:50;4.75;;;2.78;;
10467;SDS011;5281;48.878;9.394;2023-02-23T12:34:23;3.92;;;2.80;;
10467;SDS011;5281;48.878;9.394;2023-02-23T12:36:55;7.53;;;2.97;;
10467;SDS011;5281;48.878;9.394;2023-02-23T12:39:25;4.05;;;2.42;;
10467;SDS011;5281;48.878;9.394;2023-02-23T12:41:59;5.22;;;3.00;;
10467;SDS011;5281;48.878;9.394;2023-02-23T12:44:37;5.53;;;3.15;;
10467;SDS011;5281;48.878;9.394;2023-02-23T12:47:15;5.75;;;3.55;;
10467;SDS011;5281;48.878;9.394;2023-02-23T12:49:50;5.53;;;2.80;;
10467;SDS011;5281;48.878;9.394;2023-02-23T12:52:23;6.47;;;3.50;;
10467;SDS011;5281;48.878;9.394;2023-02-23T12:54:53;8.07;;;4.18;;
10467;SDS011;5281;48.878;9.394;2023-02-23T12:57:22;7.43;;;3.13;;
10467;SDS011;5281;48.878;9.394;2023-02-23T13:06:08;7.20;;;3.88;;
10467;SDS011;5281;48.878;9.394;2023-02-23T13:08:47;7.65;;;3.92;;
10467;SDS011;5281;48.878;9.394;2023-02-23T13:11:23;5.93;;;3.90;;
10467;SDS011;5281;48.878;9.394;2023-02-23T13:14:12;8.23;;;3.92;;
10467;SDS011;5281;48.878;9.394;2023-02-23T13:16:42;9.10;;;4.00;;
10467;SDS011;5281;48.878;9.394;2023-02-23T13:19:16;5.18;;;3.42;;
10467;SDS011;5281;48.878;9.394;2023-02-23T13:21:48;7.25;;;3.72;;
10467;SDS011;5281;48.878;9.394;2023-02-23T13:24:20;8.27;;;3.67;;
10467;SDS011;5281;48.878;9.394;2023-02-23T13:26:50;8.18;;;3.80;;
10467;SDS011;5281;48.878;9.394;2023-02-23T13:29:29;7.78;;;4.00;;
10467;SDS011;5281;48.878;9.394;2023-02-23T13:31:59;8.98;;;3.53;;
10467;SDS011;5281;48.878;9.394;2023-02-23T13:34:30;7.78;;;3.90;;
10467;SDS011;5281;48.878;9.394;2023-02-23T13:37:01;7.70;;;3.80;;
10467;SDS011;5281;48.878;9.394;2023-02-23T13:39:38;6.70;;;3.42;;
10467;SDS011;5281;48.878;9.394;2023-02-23T13:42:17;6.18;;;3.78;;
10467;SDS011;5281;48.878;9.394;2023-02-23T13:44:53;8.10;;;3.55;;
10467;SDS011;5281;48.878;9.394;2023-02-23T13:47:31;7.22;;;3.03;;
10467;SDS011;5281;48.878;9.394;2023-02-23T13:50:03;8.57;;;3.60;;
10467;SDS011;5281;48.878;9.394;2023-02-23T13:52:41;5.50;;;3.45;;
10467;SDS011;5281;48.878;9.394;2023-02-23T13:58:03;7.85;;;3.30;;
10467;SDS011;5281;48.878;9.394;2023-02-23T14:00:31;10.00;;;3.83;;
10467;SDS011;5281;48.878;9.394;2023-02-23T14:03:00;8.65;;;3.45;;
10467;SDS011;5281;48.878;9.394;2023-02-23T14:05:30;9.75;;;3.72;;
10467;SDS011;5281;48.878;9.394;2023-02-23T14:08:18;7.30;;;3.65;;
10467;SDS011;5281;48.878;9.394;2023-02-23T14:10:48;5.22;;;3.50;;
10467;SDS011;5281;48.878;9.394;2023-02-23T14:13:27;7.10;;;3.78;;
10467;SDS011;5281;48.878;9.394;2023-02-23T14:16:16;8.82;;;3.50;;
10467;SDS011;5281;48.878;9.394;2023-02-23T14:21:40;6.32;;;2.75;;
10467;SDS011;5281;48.878;9.394;2023-02-23T14:24:12;5.22;;;2.83;;
10467;SDS011;5281;48.878;9.394;2023-02-23T14:26:43;5.25;;;2.80;;
10467;SDS011;5281;48.878;9.394;2023-02-23T14:29:36;12.88;;;3.05;;
10467;SDS011;5281;48.878;9.394;2023-02-23T14:34:57;6.88;;;3.20;;
10467;SDS011;5281;48.878;9.394;2023-02-23T14:37:26;7.75;;;2.67;;
10467;SDS011;5281;48.878;9.394;2023-02-23T14:39:59;6.90;;;3.05;;
10467;SDS011;5281;48.878;9.394;2023-02-23T14:42:30;5.30;;;2.78;;
10467;SDS011;5281;48.878;9.394;2023-02-23T14:45:02;5.82;;;2.70;;
10467;SDS011;5281;48.878;9.394;2023-02-23T14:47:39;8.80;;;3.38;;
10467;SDS011;5281;48.878;9.394;2023-02-23T14:50:10;9.50;;;3.30;;
10467;SDS011;5281;48.878;9.394;2023-02-23T14:52:44;5.90;;;3.20;;
10467;SDS011;5281;48.878;9.394;2023-02-23T14:55:18;4.70;;;3.35;;
10467;SDS011;5281;48.878;9.394;2023-02-23T14:57:48;8.45;;;4.22;;
10467;SDS011;5281;48.878;9.394;2023-02-23T15:00:18;8.55;;;3.20;;
10467;SDS011;5281;48.878;9.394;2023-02-23T15:02:54;5.40;;;3.35;;
10467;SDS011;5281;48.878;9.394;2023-02-23T15:05:24;4.43;;;2.92;;
10467;SDS011;5281;48.878;9.394;2023-02-23T15:07:53;11.10;;;3.60;;
10467;SDS011;5281;48.878;9.394;2023-02-23T15:10:25;6.47;;;2.92;;
10467;SDS011;5281;48.878;9.394;2023-02-23T15:12:56;7.47;;;3.40;;
10467;SDS011;5281;48.878;9.394;2023-02-23T15:15:25;10.65;;;5.13;;
10467;SDS011;5281;48.878;9.394;2023-02-23T15:17:55;12.07;;;3.85;;
10467;SDS011;5281;48.878;9.394;2023-02-23T15:20:26;7.30;;;3.10;;
10467;SDS011;5281;48.878;9.394;2023-02-23T15:22:58;8.60;;;3.20;;
10467;SDS011;5281;48.878;9.394;2023-02-23T15:25:32;5.95;;;2.85;;
10467;SDS011;5281;48.878;9.394;2023-02-23T15:28:08;5.47;;;2.92;;
10467;SDS011;5281;48.878;9.394;2023-02-23T15:30:43;6.33;;;3.30;;
10467;SDS011;5281;48.878;9.394;2023-02-23T15:33:11;7.73;;;4.10;;
10467;SDS011;5281;48.878;9.394;2023-02-23T15:35:40;6.40;;;3.17;;
10467;SDS011;5281;48.878;9.394;2023-02-23T15:38:14;7.80;;;3.43;;